sensor_id;sensor_type;location;lat;lon;timestamp;temperature;humidity
75824;DHT22;64457;51.976;9.834;2023-08-24T00:00:44;20.40;99.90
75824;DHT22;64457;51.976;9.834;2023-08-24T00:03:14;20.70;99.90
75824;DHT22;64457;51.976;9.834;2023-08-24T00:05:47;20.90;99.90
75824;DHT22;64457;51.976;9.834;2023-08-24T00:08:22;21.00;99.90
75824;DHT22;64457;51.976;9.834;2023-08-24T00:10:50;21.20;99.90
75824;DHT22;64457;51.976;9.834;2023-08-24T00:13:22;21.20;99.40
75824;DHT22;64457;51.976;9.834;2023-08-24T00:15:54;21.30;99.40
75824;DHT22;64457;51.976;9.834;2023-08-24T00:18:23;21.30;99.30
75824;DHT22;64457;51.976;9.834;2023-08-24T00:20:54;21.30;99.50
75824;DHT22;64457;51.976;9.834;2023-08-24T00:23:22;21.10;99.90
75824;DHT22;64457;51.976;9.834;2023-08-24T00:25:54;20.80;99.90
75824;DHT22;64457;51.976;9.834;2023-08-24T00:28:22;20.80;99.90
75824;DHT22;64457;51.976;9.834;2023-08-24T00:30:54;20.80;99.90
75824;DHT22;64457;51.976;9.834;2023-08-24T00:33:22;20.90;99.90
75824;DHT22;64457;51.976;9.834;2023-08-24T00:35:59;20.90;99.90
75824;DHT22;64457;51.976;9.834;2023-08-24T00:38:32;21.00;99.90
75824;DHT22;64457;51.976;9.834;2023-08-24T00:41:00;21.10;99.90
75824;DHT22;64457;51.976;9.834;2023-08-24T00:43:30;21.20;99.70
75824;DHT22;64457;51.976;9.834;2023-08-24T00:46:02;21.20;99.70
75824;DHT22;64457;51.976;9.834;2023-08-24T00:48:34;21.00;99.90
75824;DHT22;64457;51.976;9.834;2023-08-24T00:51:04;20.90;99.90
75824;DHT22;64457;51.976;9.834;2023-08-24T00:53:37;20.80;99.90
75824;DHT22;64457;51.976;9.834;2023-08-24T00:56:05;20.80;99.90
75824;DHT22;64457;51.976;9.834;2023-08-24T00:58:33;20.80;99.90
75824;DHT22;64457;51.976;9.834;2023-08-24T01:01:02;20.80;99.90
75824;DHT22;64457;51.976;9.834;2023-08-24T01:03:31;20.80;99.90
75824;DHT22;64457;51.976;9.834;2023-08-24T01:05:59;20.90;99.90
75824;DHT22;64457;51.976;9.834;2023-08-24T01:08:31;21.00;99.80
75824;DHT22;64457;51.976;9.834;2023-08-24T01:11:06;21.10;99.60
75824;DHT22;64457;51.976;9.834;2023-08-24T01:13:44;21.10;99.50
75824;DHT22;64457;51.976;9.834;2023-08-24T01:16:31;21.00;99.90
75824;DHT22;64457;51.976;9.834;2023-08-24T01:19:07;20.90;99.90
75824;DHT22;64457;51.976;9.834;2023-08-24T01:21:48;20.90;99.80
75824;DHT22;64457;51.976;9.834;2023-08-24T01:24:30;21.00;99.50
75824;DHT22;64457;51.976;9.834;2023-08-24T01:27:01;20.90;99.80
75824;DHT22;64457;51.976;9.834;2023-08-24T01:29:31;20.80;99.90
75824;DHT22;64457;51.976;9.834;2023-08-24T01:31:59;20.80;99.90
75824;DHT22;64457;51.976;9.834;2023-08-24T01:34:28;20.70;99.90
75824;DHT22;64457;51.976;9.834;2023-08-24T01:36:58;20.70;99.90
75824;DHT22;64457;51.976;9.834;2023-08-24T01:39:30;20.80;99.90
75824;DHT22;64457;51.976;9.834;2023-08-24T01:42:02;20.80;99.90
75824;DHT22;64457;51.976;9.834;2023-08-24T01:44:37;20.70;99.90
75824;DHT22;64457;51.976;9.834;2023-08-24T01:47:09;20.70;99.80
75824;DHT22;64457;51.976;9.834;2023-08-24T01:49:39;20.70;99.80
75824;DHT22;64457;51.976;9.834;2023-08-24T01:52:11;20.40;99.90
75824;DHT22;64457;51.976;9.834;2023-08-24T01:54:43;19.90;99.90
75824;DHT22;64457;51.976;9.834;2023-08-24T01:57:23;19.70;99.90
75824;DHT22;64457;51.976;9.834;2023-08-24T01:59:51;19.60;99.90
75824;DHT22;64457;51.976;9.834;2023-08-24T02:02:21;19.80;99.90
75824;DHT22;64457;51.976;9.834;2023-08-24T02:04:50;19.80;99.90
75824;DHT22;64457;51.976;9.834;2023-08-24T02:07:18;19.70;99.90
75824;DHT22;64457;51.976;9.834;2023-08-24T02:09:46;19.70;99.90
75824;DHT22;64457;51.976;9.834;2023-08-24T02:12:17;19.80;99.90
75824;DHT22;64457;51.976;9.834;2023-08-24T02:14:51;20.00;99.90
75824;DHT22;64457;51.976;9.834;2023-08-24T02:17:20;20.00;99.90
75824;DHT22;64457;51.976;9.834;2023-08-24T02:19:48;20.10;99.90
75824;DHT22;64457;51.976;9.834;2023-08-24T02:22:16;20.30;99.90
75824;DHT22;64457;51.976;9.834;2023-08-24T02:24:53;20.40;99.90
75824;DHT22;64457;51.976;9.834;2023-08-24T02:27:27;20.40;99.90
75824;DHT22;64457;51.976;9.834;2023-08-24T02:29:56;20.40;99.90
75824;DHT22;64457;51.976;9.834;2023-08-24T02:32:24;20.40;99.90
75824;DHT22;64457;51.976;9.834;2023-08-24T02:34:54;20.30;99.90
75824;DHT22;64457;51.976;9.834;2023-08-24T02:37:24;20.10;99.90
75824;DHT22;64457;51.976;9.834;2023-08-24T02:39:57;20.10;99.90
75824;DHT22;64457;51.976;9.834;2023-08-24T02:42:27;20.20;99.90
75824;DHT22;64457;51.976;9.834;2023-08-24T02:45:00;20.20;99.90
75824;DHT22;64457;51.976;9.834;2023-08-24T02:47:28;20.20;99.90
75824;DHT22;64457;51.976;9.834;2023-08-24T02:50:04;20.00;99.90
75824;DHT22;64457;51.976;9.834;2023-08-24T02:52:33;19.90;99.90
75824;DHT22;64457;51.976;9.834;2023-08-24T02:55:00;20.00;99.90
75824;DHT22;64457;51.976;9.834;2023-08-24T02:57:32;19.90;99.90
75824;DHT22;64457;51.976;9.834;2023-08-24T03:00:06;19.60;99.90
75824;DHT22;64457;51.976;9.834;2023-08-24T03:02:35;19.40;99.90
75824;DHT22;64457;51.976;9.834;2023-08-24T03:05:04;19.20;99.90
75824;DHT22;64457;51.976;9.834;2023-08-24T03:07:34;19.10;99.90
75824;DHT22;64457;51.976;9.834;2023-08-24T03:10:02;19.00;99.90
75824;DHT22;64457;51.976;9.834;2023-08-24T03:12:33;19.10;99.90
75824;DHT22;64457;51.976;9.834;2023-08-24T03:15:08;19.30;99.90
75824;DHT22;64457;51.976;9.834;2023-08-24T03:17:41;19.40;99.90
75824;DHT22;64457;51.976;9.834;2023-08-24T03:20:10;19.60;99.90
75824;DHT22;64457;51.976;9.834;2023-08-24T03:22:40;19.80;99.90
75824;DHT22;64457;51.976;9.834;2023-08-24T03:25:09;20.00;99.90
75824;DHT22;64457;51.976;9.834;2023-08-24T03:27:38;20.00;99.90
75824;DHT22;64457;51.976;9.834;2023-08-24T03:30:08;20.10;99.90
75824;DHT22;64457;51.976;9.834;2023-08-24T03:32:36;20.20;99.90
75824;DHT22;64457;51.976;9.834;2023-08-24T03:35:04;20.20;99.90
75824;DHT22;64457;51.976;9.834;2023-08-24T03:37:32;20.00;99.90
75824;DHT22;64457;51.976;9.834;2023-08-24T03:40:00;20.00;99.90
75824;DHT22;64457;51.976;9.834;2023-08-24T03:42:32;20.00;99.90
75824;DHT22;64457;51.976;9.834;2023-08-24T03:45:06;19.80;99.90
75824;DHT22;64457;51.976;9.834;2023-08-24T03:47:35;19.60;99.90
75824;DHT22;64457;51.976;9.834;2023-08-24T03:50:03;19.60;99.90
75824;DHT22;64457;51.976;9.834;2023-08-24T03:52:32;19.80;99.90
75824;DHT22;64457;51.976;9.834;2023-08-24T03:55:00;19.70;99.90
75824;DHT22;64457;51.976;9.834;2023-08-24T03:57:28;19.30;99.90
75824;DHT22;64457;51.976;9.834;2023-08-24T03:59:55;19.30;99.90
75824;DHT22;64457;51.976;9.834;2023-08-24T04:02:24;19.40;99.90
75824;DHT22;64457;51.976;9.834;2023-08-24T04:04:53;19.60;99.90
75824;DHT22;64457;51.976;9.834;2023-08-24T04:07:21;19.60;99.90
75824;DHT22;64457;51.976;9.834;2023-08-24T04:09:49;19.50;99.90
75824;DHT22;64457;51.976;9.834;2023-08-24T04:12:32;19.60;99.90
75824;DHT22;64457;51.976;9.834;2023-08-24T04:15:05;19.60;99.90
75824;DHT22;64457;51.976;9.834;2023-08-24T04:17:34;19.40;99.90
75824;DHT22;64457;51.976;9.834;2023-08-24T04:20:02;19.30;99.90
75824;DHT22;64457;51.976;9.834;2023-08-24T04:22:32;19.30;99.90
75824;DHT22;64457;51.976;9.834;2023-08-24T04:25:00;19.40;99.90
75824;DHT22;64457;51.976;9.834;2023-08-24T04:27:28;19.60;99.90
75824;DHT22;64457;51.976;9.834;2023-08-24T04:29:59;19.80;99.90
75824;DHT22;64457;51.976;9.834;2023-08-24T04:32:39;19.90;99.90
75824;DHT22;64457;51.976;9.834;2023-08-24T04:35:08;20.00;99.90
75824;DHT22;64457;51.976;9.834;2023-08-24T04:37:36;20.10;99.90
75824;DHT22;64457;51.976;9.834;2023-08-24T04:40:07;20.20;99.90
75824;DHT22;64457;51.976;9.834;2023-08-24T04:42:37;20.20;99.90
75824;DHT22;64457;51.976;9.834;2023-08-24T04:45:05;20.30;99.90
75824;DHT22;64457;51.976;9.834;2023-08-24T04:47:36;20.30;99.90
75824;DHT22;64457;51.976;9.834;2023-08-24T04:50:12;20.30;99.90
75824;DHT22;64457;51.976;9.834;2023-08-24T04:52:42;20.40;99.90
75824;DHT22;64457;51.976;9.834;2023-08-24T04:55:09;20.50;99.90
75824;DHT22;64457;51.976;9.834;2023-08-24T04:57:45;20.50;99.90
75824;DHT22;64457;51.976;9.834;2023-08-24T05:00:15;20.60;99.90
75824;DHT22;64457;51.976;9.834;2023-08-24T05:02:49;20.60;99.90
75824;DHT22;64457;51.976;9.834;2023-08-24T05:05:18;20.70;99.90
75824;DHT22;64457;51.976;9.834;2023-08-24T05:07:46;20.80;99.90
75824;DHT22;64457;51.976;9.834;2023-08-24T05:10:13;20.90;99.90
75824;DHT22;64457;51.976;9.834;2023-08-24T05:12:41;20.80;99.80
75824;DHT22;64457;51.976;9.834;2023-08-24T05:15:09;20.80;99.90
75824;DHT22;64457;51.976;9.834;2023-08-24T05:17:37;20.80;99.70
75824;DHT22;64457;51.976;9.834;2023-08-24T05:20:05;20.90;99.90
75824;DHT22;64457;51.976;9.834;2023-08-24T05:22:35;21.00;99.90
75824;DHT22;64457;51.976;9.834;2023-08-24T05:25:03;21.10;99.60
75824;DHT22;64457;51.976;9.834;2023-08-24T05:27:31;21.20;99.50
75824;DHT22;64457;51.976;9.834;2023-08-24T05:29:59;21.20;99.90
75824;DHT22;64457;51.976;9.834;2023-08-24T05:32:27;21.30;99.70
75824;DHT22;64457;51.976;9.834;2023-08-24T05:34:55;21.50;99.90
75824;DHT22;64457;51.976;9.834;2023-08-24T05:37:23;21.50;99.30
75824;DHT22;64457;51.976;9.834;2023-08-24T05:39:53;21.20;99.70
75824;DHT22;64457;51.976;9.834;2023-08-24T05:42:21;21.10;99.90
75824;DHT22;64457;51.976;9.834;2023-08-24T05:44:55;20.80;99.90
75824;DHT22;64457;51.976;9.834;2023-08-24T05:47:22;20.70;99.90
75824;DHT22;64457;51.976;9.834;2023-08-24T05:49:52;21.00;99.90
75824;DHT22;64457;51.976;9.834;2023-08-24T05:52:19;21.40;99.90
75824;DHT22;64457;51.976;9.834;2023-08-24T05:54:47;22.20;99.90
75824;DHT22;64457;51.976;9.834;2023-08-24T05:57:17;22.80;98.60
75824;DHT22;64457;51.976;9.834;2023-08-24T05:59:45;23.00;97.80
75824;DHT22;64457;51.976;9.834;2023-08-24T06:02:15;22.30;98.20
75824;DHT22;64457;51.976;9.834;2023-08-24T06:04:43;22.00;98.70
75824;DHT22;64457;51.976;9.834;2023-08-24T06:07:16;21.60;99.30
75824;DHT22;64457;51.976;9.834;2023-08-24T06:09:44;21.50;99.70
75824;DHT22;64457;51.976;9.834;2023-08-24T06:12:13;21.30;99.90
75824;DHT22;64457;51.976;9.834;2023-08-24T06:14:44;20.90;99.90
75824;DHT22;64457;51.976;9.834;2023-08-24T06:17:11;20.60;99.90
75824;DHT22;64457;51.976;9.834;2023-08-24T06:19:39;20.50;99.90
75824;DHT22;64457;51.976;9.834;2023-08-24T06:22:07;20.70;99.90
75824;DHT22;64457;51.976;9.834;2023-08-24T06:24:37;21.00;99.90
75824;DHT22;64457;51.976;9.834;2023-08-24T06:27:05;21.10;99.90
75824;DHT22;64457;51.976;9.834;2023-08-24T06:29:32;20.90;99.90
75824;DHT22;64457;51.976;9.834;2023-08-24T06:32:04;21.00;99.90
75824;DHT22;64457;51.976;9.834;2023-08-24T06:34:32;21.10;99.90
75824;DHT22;64457;51.976;9.834;2023-08-24T06:37:02;20.50;99.90
75824;DHT22;64457;51.976;9.834;2023-08-24T06:39:30;20.20;99.90
75824;DHT22;64457;51.976;9.834;2023-08-24T06:41:58;20.00;99.90
75824;DHT22;64457;51.976;9.834;2023-08-24T06:44:25;20.10;99.90
75824;DHT22;64457;51.976;9.834;2023-08-24T06:46:53;20.00;99.90
75824;DHT22;64457;51.976;9.834;2023-08-24T06:49:22;20.00;99.90
75824;DHT22;64457;51.976;9.834;2023-08-24T06:51:51;19.90;99.90
75824;DHT22;64457;51.976;9.834;2023-08-24T06:54:19;20.00;99.90
75824;DHT22;64457;51.976;9.834;2023-08-24T06:56:49;20.40;99.90
75824;DHT22;64457;51.976;9.834;2023-08-24T06:59:16;20.60;99.90
75824;DHT22;64457;51.976;9.834;2023-08-24T07:01:46;20.80;99.90
75824;DHT22;64457;51.976;9.834;2023-08-24T07:04:14;21.00;99.90
75824;DHT22;64457;51.976;9.834;2023-08-24T07:06:50;21.20;99.90
75824;DHT22;64457;51.976;9.834;2023-08-24T07:09:18;21.40;99.90
75824;DHT22;64457;51.976;9.834;2023-08-24T07:11:50;21.60;99.90
75824;DHT22;64457;51.976;9.834;2023-08-24T07:14:22;21.20;99.90
75824;DHT22;64457;51.976;9.834;2023-08-24T07:16:52;21.30;99.90
75824;DHT22;64457;51.976;9.834;2023-08-24T07:19:22;21.60;99.90
75824;DHT22;64457;51.976;9.834;2023-08-24T07:22:00;21.70;99.90
75824;DHT22;64457;51.976;9.834;2023-08-24T07:24:28;21.80;99.90
75824;DHT22;64457;51.976;9.834;2023-08-24T07:26:56;21.90;99.90
75824;DHT22;64457;51.976;9.834;2023-08-24T07:29:24;22.10;99.90
75824;DHT22;64457;51.976;9.834;2023-08-24T07:31:53;22.30;99.90
75824;DHT22;64457;51.976;9.834;2023-08-24T07:34:21;22.40;99.90
75824;DHT22;64457;51.976;9.834;2023-08-24T07:36:49;22.60;99.90
75824;DHT22;64457;51.976;9.834;2023-08-24T07:39:18;22.70;99.90
75824;DHT22;64457;51.976;9.834;2023-08-24T07:41:46;22.90;99.90
75824;DHT22;64457;51.976;9.834;2023-08-24T07:44:13;23.20;99.30
75824;DHT22;64457;51.976;9.834;2023-08-24T07:46:43;23.50;99.90
75824;DHT22;64457;51.976;9.834;2023-08-24T07:49:15;24.20;99.80
75824;DHT22;64457;51.976;9.834;2023-08-24T07:51:42;25.10;98.10
75824;DHT22;64457;51.976;9.834;2023-08-24T07:54:10;25.80;95.60
75824;DHT22;64457;51.976;9.834;2023-08-24T07:56:39;26.10;96.20
75824;DHT22;64457;51.976;9.834;2023-08-24T07:59:06;26.00;95.80
75824;DHT22;64457;51.976;9.834;2023-08-24T08:01:36;26.40;96.50
75824;DHT22;64457;51.976;9.834;2023-08-24T08:04:04;27.60;95.30
75824;DHT22;64457;51.976;9.834;2023-08-24T08:06:31;29.10;91.70
75824;DHT22;64457;51.976;9.834;2023-08-24T08:09:02;30.00;90.00
75824;DHT22;64457;51.976;9.834;2023-08-24T08:11:30;30.30;87.90
75824;DHT22;64457;51.976;9.834;2023-08-24T08:13:59;29.80;88.70
75824;DHT22;64457;51.976;9.834;2023-08-24T08:16:26;29.50;90.10
75824;DHT22;64457;51.976;9.834;2023-08-24T08:18:56;29.80;90.70
75824;DHT22;64457;51.976;9.834;2023-08-24T08:21:24;30.20;88.80
75824;DHT22;64457;51.976;9.834;2023-08-24T08:23:51;29.90;86.90
75824;DHT22;64457;51.976;9.834;2023-08-24T08:26:19;29.00;89.70
75824;DHT22;64457;51.976;9.834;2023-08-24T08:28:49;27.60;91.60
75824;DHT22;64457;51.976;9.834;2023-08-24T08:31:18;27.20;92.90
75824;DHT22;64457;51.976;9.834;2023-08-24T08:33:45;27.10;92.90
75824;DHT22;64457;51.976;9.834;2023-08-24T08:36:13;26.80;93.30
75824;DHT22;64457;51.976;9.834;2023-08-24T08:38:40;26.90;92.60
75824;DHT22;64457;51.976;9.834;2023-08-24T08:41:09;26.60;93.10
75824;DHT22;64457;51.976;9.834;2023-08-24T08:43:38;26.30;93.30
75824;DHT22;64457;51.976;9.834;2023-08-24T08:46:05;26.00;94.00
75824;DHT22;64457;51.976;9.834;2023-08-24T08:48:37;25.60;95.10
75824;DHT22;64457;51.976;9.834;2023-08-24T08:51:05;25.90;95.00
75824;DHT22;64457;51.976;9.834;2023-08-24T08:53:33;26.00;94.50
75824;DHT22;64457;51.976;9.834;2023-08-24T08:56:01;26.50;94.10
75824;DHT22;64457;51.976;9.834;2023-08-24T08:58:31;26.90;93.30
75824;DHT22;64457;51.976;9.834;2023-08-24T09:01:02;27.30;92.50
75824;DHT22;64457;51.976;9.834;2023-08-24T09:03:31;27.60;92.20
75824;DHT22;64457;51.976;9.834;2023-08-24T09:06:03;27.80;91.40
75824;DHT22;64457;51.976;9.834;2023-08-24T09:08:31;28.00;91.60
75824;DHT22;64457;51.976;9.834;2023-08-24T09:10:59;28.10;91.00
75824;DHT22;64457;51.976;9.834;2023-08-24T09:13:30;28.30;91.10
75824;DHT22;64457;51.976;9.834;2023-08-24T09:16:03;29.00;91.30
75824;DHT22;64457;51.976;9.834;2023-08-24T09:18:38;30.30;88.70
75824;DHT22;64457;51.976;9.834;2023-08-24T09:21:12;31.30;85.10
75824;DHT22;64457;51.976;9.834;2023-08-24T09:23:52;31.00;82.20
75824;DHT22;64457;51.976;9.834;2023-08-24T09:26:27;31.10;79.20
75824;DHT22;64457;51.976;9.834;2023-08-24T09:28:56;29.20;81.30
75824;DHT22;64457;51.976;9.834;2023-08-24T09:31:35;27.80;88.30
75824;DHT22;64457;51.976;9.834;2023-08-24T09:34:05;28.30;87.30
75824;DHT22;64457;51.976;9.834;2023-08-24T09:36:33;29.50;89.80
75824;DHT22;64457;51.976;9.834;2023-08-24T09:39:02;30.50;85.60
75824;DHT22;64457;51.976;9.834;2023-08-24T09:41:41;30.50;80.40
75824;DHT22;64457;51.976;9.834;2023-08-24T09:44:13;31.10;82.40
75824;DHT22;64457;51.976;9.834;2023-08-24T09:46:50;31.70;78.70
75824;DHT22;64457;51.976;9.834;2023-08-24T09:49:21;30.20;77.70
75824;DHT22;64457;51.976;9.834;2023-08-24T09:51:48;29.20;83.70
75824;DHT22;64457;51.976;9.834;2023-08-24T09:54:25;29.40;81.70
75824;DHT22;64457;51.976;9.834;2023-08-24T09:56:55;30.00;83.60
75824;DHT22;64457;51.976;9.834;2023-08-24T09:59:26;30.60;81.00
75824;DHT22;64457;51.976;9.834;2023-08-24T10:01:55;30.80;80.20
75824;DHT22;64457;51.976;9.834;2023-08-24T10:04:28;30.40;80.90
75824;DHT22;64457;51.976;9.834;2023-08-24T10:07:11;30.10;82.00
75824;DHT22;64457;51.976;9.834;2023-08-24T10:09:45;30.30;81.20
75824;DHT22;64457;51.976;9.834;2023-08-24T10:12:19;30.70;81.40
75824;DHT22;64457;51.976;9.834;2023-08-24T10:14:56;31.10;79.30
75824;DHT22;64457;51.976;9.834;2023-08-24T10:17:28;31.30;76.70
75824;DHT22;64457;51.976;9.834;2023-08-24T10:20:10;31.20;78.60
75824;DHT22;64457;51.976;9.834;2023-08-24T10:22:38;31.10;77.70
75824;DHT22;64457;51.976;9.834;2023-08-24T10:25:08;31.20;78.20
75824;DHT22;64457;51.976;9.834;2023-08-24T10:27:36;31.00;78.50
75824;DHT22;64457;51.976;9.834;2023-08-24T10:30:11;31.00;78.40
75824;DHT22;64457;51.976;9.834;2023-08-24T10:32:41;30.90;77.70
75824;DHT22;64457;51.976;9.834;2023-08-24T10:35:10;31.00;78.70
75824;DHT22;64457;51.976;9.834;2023-08-24T10:37:44;31.10;78.20
75824;DHT22;64457;51.976;9.834;2023-08-24T10:40:13;31.30;78.90
75824;DHT22;64457;51.976;9.834;2023-08-24T10:42:44;31.70;79.30
75824;DHT22;64457;51.976;9.834;2023-08-24T10:45:13;31.80;75.90
75824;DHT22;64457;51.976;9.834;2023-08-24T10:47:45;31.90;76.10
75824;DHT22;64457;51.976;9.834;2023-08-24T10:50:15;31.40;76.70
75824;DHT22;64457;51.976;9.834;2023-08-24T10:52:43;31.40;76.40
75824;DHT22;64457;51.976;9.834;2023-08-24T10:55:22;31.20;76.50
75824;DHT22;64457;51.976;9.834;2023-08-24T10:57:56;31.10;74.80
75824;DHT22;64457;51.976;9.834;2023-08-24T11:00:26;31.10;76.20
75824;DHT22;64457;51.976;9.834;2023-08-24T11:02:55;31.10;77.40
75824;DHT22;64457;51.976;9.834;2023-08-24T11:05:26;31.30;77.30
75824;DHT22;64457;51.976;9.834;2023-08-24T11:07:57;30.70;77.70
75824;DHT22;64457;51.976;9.834;2023-08-24T11:10:31;30.80;79.50
75824;DHT22;64457;51.976;9.834;2023-08-24T11:13:11;31.20;78.30
75824;DHT22;64457;51.976;9.834;2023-08-24T11:15:41;31.80;74.50
75824;DHT22;64457;51.976;9.834;2023-08-24T11:18:26;32.00;70.80
75824;DHT22;64457;51.976;9.834;2023-08-24T11:21:01;32.10;72.40
75824;DHT22;64457;51.976;9.834;2023-08-24T11:23:34;32.20;69.70
75824;DHT22;64457;51.976;9.834;2023-08-24T11:26:07;32.20;68.40
75824;DHT22;64457;51.976;9.834;2023-08-24T11:28:39;32.20;69.20
75824;DHT22;64457;51.976;9.834;2023-08-24T11:31:10;32.20;68.40
75824;DHT22;64457;51.976;9.834;2023-08-24T11:33:39;32.10;65.30
75824;DHT22;64457;51.976;9.834;2023-08-24T11:36:12;32.10;67.50
75824;DHT22;64457;51.976;9.834;2023-08-24T11:38:42;32.10;65.60
75824;DHT22;64457;51.976;9.834;2023-08-24T11:41:12;32.10;64.90
75824;DHT22;64457;51.976;9.834;2023-08-24T11:43:46;32.10;64.80
75824;DHT22;64457;51.976;9.834;2023-08-24T11:46:17;32.10;66.50
75824;DHT22;64457;51.976;9.834;2023-08-24T11:48:47;32.20;69.40
75824;DHT22;64457;51.976;9.834;2023-08-24T11:51:17;32.30;69.40
75824;DHT22;64457;51.976;9.834;2023-08-24T11:53:45;32.40;70.00
75824;DHT22;64457;51.976;9.834;2023-08-24T11:56:16;32.50;69.20
75824;DHT22;64457;51.976;9.834;2023-08-24T11:58:50;31.80;70.30
75824;DHT22;64457;51.976;9.834;2023-08-24T12:01:18;31.80;71.40
75824;DHT22;64457;51.976;9.834;2023-08-24T12:03:46;31.10;71.10
75824;DHT22;64457;51.976;9.834;2023-08-24T12:06:16;31.30;72.30
75824;DHT22;64457;51.976;9.834;2023-08-24T12:08:46;31.40;71.00
75824;DHT22;64457;51.976;9.834;2023-08-24T12:11:17;31.90;72.10
75824;DHT22;64457;51.976;9.834;2023-08-24T12:13:46;31.70;72.90
75824;DHT22;64457;51.976;9.834;2023-08-24T12:16:16;31.80;73.70
75824;DHT22;64457;51.976;9.834;2023-08-24T12:18:47;31.80;72.80
75824;DHT22;64457;51.976;9.834;2023-08-24T12:21:18;31.80;72.20
75824;DHT22;64457;51.976;9.834;2023-08-24T12:23:55;32.00;71.70
75824;DHT22;64457;51.976;9.834;2023-08-24T12:26:30;31.80;71.00
75824;DHT22;64457;51.976;9.834;2023-08-24T12:29:01;31.50;72.20
75824;DHT22;64457;51.976;9.834;2023-08-24T12:31:33;31.70;70.90
75824;DHT22;64457;51.976;9.834;2023-08-24T12:34:06;32.00;70.00
75824;DHT22;64457;51.976;9.834;2023-08-24T12:36:37;31.50;69.10
75824;DHT22;64457;51.976;9.834;2023-08-24T12:39:10;31.40;71.40
75824;DHT22;64457;51.976;9.834;2023-08-24T12:41:43;31.50;69.80
75824;DHT22;64457;51.976;9.834;2023-08-24T12:44:14;31.90;68.90
75824;DHT22;64457;51.976;9.834;2023-08-24T12:46:43;32.00;68.40
75824;DHT22;64457;51.976;9.834;2023-08-24T12:49:11;31.50;65.50
75824;DHT22;64457;51.976;9.834;2023-08-24T12:51:40;31.30;65.00
75824;DHT22;64457;51.976;9.834;2023-08-24T12:54:07;31.10;65.10
75824;DHT22;64457;51.976;9.834;2023-08-24T12:56:34;31.30;65.50
75824;DHT22;64457;51.976;9.834;2023-08-24T12:59:05;31.50;65.10
75824;DHT22;64457;51.976;9.834;2023-08-24T13:01:34;31.30;69.60
75824;DHT22;64457;51.976;9.834;2023-08-24T13:04:01;31.40;71.10
75824;DHT22;64457;51.976;9.834;2023-08-24T13:06:29;31.80;70.40
75824;DHT22;64457;51.976;9.834;2023-08-24T13:08:58;32.10;68.70
75824;DHT22;64457;51.976;9.834;2023-08-24T13:11:26;32.30;69.20
75824;DHT22;64457;51.976;9.834;2023-08-24T13:13:58;32.10;68.10
75824;DHT22;64457;51.976;9.834;2023-08-24T13:16:28;32.00;67.20
75824;DHT22;64457;51.976;9.834;2023-08-24T13:18:55;32.10;68.80
75824;DHT22;64457;51.976;9.834;2023-08-24T13:21:30;32.00;67.10
75824;DHT22;64457;51.976;9.834;2023-08-24T13:23:59;32.20;69.10
75824;DHT22;64457;51.976;9.834;2023-08-24T13:26:28;32.50;67.40
75824;DHT22;64457;51.976;9.834;2023-08-24T13:28:56;32.30;65.30
75824;DHT22;64457;51.976;9.834;2023-08-24T13:31:33;31.60;65.60
75824;DHT22;64457;51.976;9.834;2023-08-24T13:34:04;31.20;68.50
75824;DHT22;64457;51.976;9.834;2023-08-24T13:36:34;31.50;69.00
75824;DHT22;64457;51.976;9.834;2023-08-24T13:39:05;31.30;68.20
75824;DHT22;64457;51.976;9.834;2023-08-24T13:41:33;31.80;69.10
75824;DHT22;64457;51.976;9.834;2023-08-24T13:44:00;32.00;63.70
75824;DHT22;64457;51.976;9.834;2023-08-24T13:46:28;32.10;66.20
75824;DHT22;64457;51.976;9.834;2023-08-24T13:48:56;31.90;65.30
75824;DHT22;64457;51.976;9.834;2023-08-24T13:51:23;32.00;65.40
75824;DHT22;64457;51.976;9.834;2023-08-24T13:53:51;32.10;64.50
75824;DHT22;64457;51.976;9.834;2023-08-24T13:56:25;32.20;65.40
75824;DHT22;64457;51.976;9.834;2023-08-24T13:58:53;32.50;66.40
75824;DHT22;64457;51.976;9.834;2023-08-24T14:01:28;32.70;65.20
75824;DHT22;64457;51.976;9.834;2023-08-24T14:03:56;32.90;68.20
75824;DHT22;64457;51.976;9.834;2023-08-24T14:06:23;33.20;67.30
75824;DHT22;64457;51.976;9.834;2023-08-24T14:08:51;33.20;63.80
75824;DHT22;64457;51.976;9.834;2023-08-24T14:11:18;33.30;67.30
75824;DHT22;64457;51.976;9.834;2023-08-24T14:13:47;33.30;65.20
75824;DHT22;64457;51.976;9.834;2023-08-24T14:16:20;33.40;65.40
75824;DHT22;64457;51.976;9.834;2023-08-24T14:18:48;33.30;66.30
75824;DHT22;64457;51.976;9.834;2023-08-24T14:21:18;33.00;65.80
75824;DHT22;64457;51.976;9.834;2023-08-24T14:23:49;33.00;68.60
75824;DHT22;64457;51.976;9.834;2023-08-24T14:26:17;33.10;66.00
75824;DHT22;64457;51.976;9.834;2023-08-24T14:28:51;32.80;66.80
75824;DHT22;64457;51.976;9.834;2023-08-24T14:31:20;32.40;67.00
75824;DHT22;64457;51.976;9.834;2023-08-24T14:33:49;32.30;69.60
75824;DHT22;64457;51.976;9.834;2023-08-24T14:36:17;32.60;69.10
75824;DHT22;64457;51.976;9.834;2023-08-24T14:38:46;32.60;69.80
75824;DHT22;64457;51.976;9.834;2023-08-24T14:41:14;31.90;67.00
75824;DHT22;64457;51.976;9.834;2023-08-24T14:43:44;31.10;71.70
75824;DHT22;64457;51.976;9.834;2023-08-24T14:46:16;30.90;72.90
75824;DHT22;64457;51.976;9.834;2023-08-24T14:48:48;31.20;73.20
75824;DHT22;64457;51.976;9.834;2023-08-24T14:51:15;31.60;70.50
75824;DHT22;64457;51.976;9.834;2023-08-24T14:53:45;31.90;70.70
75824;DHT22;64457;51.976;9.834;2023-08-24T14:56:14;31.90;72.30
75824;DHT22;64457;51.976;9.834;2023-08-24T14:58:46;32.30;71.50
75824;DHT22;64457;51.976;9.834;2023-08-24T15:01:15;32.20;70.70
75824;DHT22;64457;51.976;9.834;2023-08-24T15:03:47;32.20;71.70
75824;DHT22;64457;51.976;9.834;2023-08-24T15:06:16;32.40;71.80
75824;DHT22;64457;51.976;9.834;2023-08-24T15:08:46;32.50;70.80
75824;DHT22;64457;51.976;9.834;2023-08-24T15:11:17;32.60;69.60
75824;DHT22;64457;51.976;9.834;2023-08-24T15:13:48;32.00;70.40
75824;DHT22;64457;51.976;9.834;2023-08-24T15:16:27;31.60;72.20
75824;DHT22;64457;51.976;9.834;2023-08-24T15:18:58;31.60;73.40
75824;DHT22;64457;51.976;9.834;2023-08-24T15:21:27;31.70;73.10
75824;DHT22;64457;51.976;9.834;2023-08-24T15:23:56;31.50;74.50
75824;DHT22;64457;51.976;9.834;2023-08-24T15:26:25;31.50;74.10
75824;DHT22;64457;51.976;9.834;2023-08-24T15:29:11;31.30;74.20
75824;DHT22;64457;51.976;9.834;2023-08-24T15:31:42;31.20;74.10
75824;DHT22;64457;51.976;9.834;2023-08-24T15:34:13;30.60;75.00
75824;DHT22;64457;51.976;9.834;2023-08-24T15:36:41;30.50;76.20
75824;DHT22;64457;51.976;9.834;2023-08-24T15:39:11;30.70;76.90
75824;DHT22;64457;51.976;9.834;2023-08-24T15:41:42;31.10;76.50
75824;DHT22;64457;51.976;9.834;2023-08-24T15:44:15;31.40;76.20
75824;DHT22;64457;51.976;9.834;2023-08-24T15:46:49;31.30;76.50
75824;DHT22;64457;51.976;9.834;2023-08-24T15:49:17;30.90;77.30